気象予報士の航空気象 2011年09月

*All archives   *Admin

2011.09.21 (Wed)

台風15号、そのとき羽田は?

台風15号が関東を直撃。


羽田も成田も大荒れ。


羽田がらみは昼から欠航あたりまえ。


新幹線も止まり、在来線や私鉄もダメ。


退社を早くしたところもあるそうですが、今日は半ドンが正解。


夕方の3時に退社を促しても、遅かった。


RJTT 210825Z 18054G72KT 1000 R34L/0800VP1800U R22/0900VP1800U R16L/1800U R23///// +SHRA FEW006 BKN010 BKN015 24/23 Q0979 RMK 1ST006 5ST010 7CU015 A2891 P/FR


気圧と風の強さから、午後5時25分において、再接近したと思われる。


羽田のこのときの天候は、視程が1000m、大雨、南風27メートル最大風36メートル。


さすがに電車も高速の一部が止まるのがわかります。


すべては安全のためです。


会社勤めの皆様、今晩は今日のうちに帰宅できたら良しですよ。


ちなみに、成田空港


RJAA 210848Z 15036G58KT 1200 R16R/P1800N R16L/1800D +SHRA FEW008 BKN012 BKN020 24/23 Q0981 RMK 1ST008 5CU012 7CU020 A2899 P/FR


羽田より中心から距離があるので比較的弱いですが、強風には変わりありません。


みなさま、お疲れ様でした。




ブログランキングに参加しています。
にほんブログ村 環境ブログ 天気・気象学へ
にほんブログ村
応援クリックをおねがします。


以下、アフィリエイトサイトです。







スポンサーサイト
21:24  |  気象・天気  |  TB(0)  |  CM(0)  |  EDIT  |  Top↑

2011.09.16 (Fri)

台風のあたり年?

台風12号の爪あとがまだ残る中、迷走台風15号が沖縄近辺でうろついている。


台風16号も関東に影響を及ぼしそうだ。


台風15号の東側の暖湿流が九州や四国、近畿を襲っている。


台風の進路が気になるところ。


また、近畿の総雨量も心配だ。



台風




 
ブログランキングに参加しています。
にほんブログ村 環境ブログ 天気・気象学へ
にほんブログ村
応援クリックをおねがします。


以下、アフィリエイトサイトです。







12:05  |  気象・天気  |  TB(0)  |  CM(0)  |  EDIT  |  Top↑

2011.09.11 (Sun)

9.11

10年も経つ。


考える1日とする。
11:28  |  航空機  |  TB(0)  |  CM(0)  |  EDIT  |  Top↑

2011.09.08 (Thu)

白露 きたりて 露降りる

白露です。


早朝、散歩を趣味とされている方はお気づきかもしれませんが、この時期あたりに草木や車に露が着きます。


空気が澄み、放射冷却が進んだ影響です。


また、七十二候の中には、ツバメが南に帰っていくという意味のものもあります。


稲は収穫され、野焼きが始まる時期でもありますが、すかっとさわやかな秋晴れほど、空気がよどみやすく、そのにおいに悩まされるかもしれません。



つばめ



 
ブログランキングに参加しています。
にほんブログ村 環境ブログ 天気・気象学へ
にほんブログ村
応援クリックをおねがします。


以下、アフィリエイトサイトです。







11:09  |  気象・天気  |  TB(0)  |  CM(0)  |  EDIT  |  Top↑

2011.09.02 (Fri)

台風接近

台風12号接近。


明日は、何便か欠航するのでは。


新幹線も静岡あたりでも止まるかも、大雨で。


移動はやめて、どうしても移動しないといけない人は、情報を集めましょう。



 
ブログランキングに参加しています。
にほんブログ村 環境ブログ 天気・気象学へ
にほんブログ村
応援クリックをおねがします。


以下、アフィリエイトサイトです。







18:43  |  時事  |  TB(0)  |  CM(0)  |  EDIT  |  Top↑
 | BLOGTOP |